Time;durP1;ratioP1;P1;durP2;ratioP2;P2;SDS_P1;SDS_P2;PMS_P1;PMS_P2;Temp;Humidity;BMP_temperature;BMP_pressure;BME280_temperature;BME280_humidity;BME280_pressure;Samples;Min_cycle;Max_cycle;Signal;HPM_P1;HPM_P2
2022/10/21 00:01:11;;;;;;;24.13;13.30;;;;;;;14.93;100.00;100729.25;2615784;36;20040;-58
2022/10/21 00:03:39;;;;;;;24.53;13.40;;;;;;;15.02;100.00;100735.53;2616098;36;20031;-57
2022/10/21 00:06:12;;;;;;;22.67;13.15;;;;;;;15.03;100.00;100739.91;2616443;36;20287;-58
2022/10/21 00:08:41;;;;;;;24.90;13.50;;;;;;;14.93;100.00;100734.66;2615539;36;20026;-58
2022/10/21 00:11:11;;;;;;;23.25;13.30;;;;;;;14.88;100.00;100728.88;2615078;36;20031;-58
2022/10/21 00:13:41;;;;;;;34.72;14.30;;;;;;;14.89;100.00;100738.72;2616643;31;20035;-58
2022/10/21 00:16:11;;;;;;;23.77;13.52;;;;;;;14.88;100.00;100739.72;2615162;36;20167;-58
2022/10/21 00:18:41;;;;;;;27.90;13.38;;;;;;;14.94;100.00;100730.09;2616139;36;20031;-58
2022/10/21 00:21:14;;;;;;;24.60;13.48;;;;;;;15.07;100.00;100723.16;2615165;36;20420;-59
2022/10/21 00:23:43;;;;;;;25.85;13.48;;;;;;;15.14;100.00;100715.19;2616022;36;20046;-59
2022/10/21 00:26:12;;;;;;;;;;;;;;;15.19;100.00;100711.97;2613990;36;20042;-58
2022/10/21 00:28:41;;;;;;;22.70;11.93;;;;;;;15.17;100.00;100708.59;2615777;36;19950;-59
2022/10/21 00:31:11;;;;;;;22.35;13.75;;;;;;;15.17;100.00;100708.59;2615183;36;20034;-58
2022/10/21 00:33:40;;;;;;;23.55;13.27;;;;;;;15.14;100.00;100717.06;2616360;36;20057;-58
2022/10/21 00:36:13;;;;;;;23.38;12.93;;;;;;;15.08;100.00;100726.72;2613885;31;20042;-60
2022/10/21 00:38:43;;;;;;;27.17;13.30;;;;;;;15.11;100.00;100725.53;2616198;36;20047;-59
2022/10/21 00:41:12;;;;;;;22.00;13.10;;;;;;;15.10;100.00;100740.94;2614324;36;20030;-58
2022/10/21 00:43:57;;;;;;;24.42;13.20;;;;;;;15.11;100.00;100742.63;2615517;36;20562;-60
2022/10/21 00:46:33;;;;;;;26.23;13.80;;;;;;;15.11;100.00;100739.94;2614777;36;20627;-60
2022/10/21 00:49:07;;;;;;;24.27;13.38;;;;;;;15.10;100.00;100754.47;2615276;36;20041;-49
2022/10/21 00:51:39;;;;;;;25.98;13.85;;;;;;;15.23;100.00;100749.41;2610035;36;20038;-55
2022/10/21 00:54:08;;;;;;;29.92;15.52;;;;;;;15.31;100.00;100766.69;2614662;36;20034;-55
2022/10/21 00:56:38;;;;;;;22.80;13.77;;;;;;;15.26;100.00;100761.78;2614838;36;20026;-50
2022/10/21 00:59:07;;;;;;;26.77;13.60;;;;;;;15.30;100.00;100757.72;2614650;31;20038;-55
2022/10/21 01:01:36;;;;;;;26.52;15.32;;;;;;;15.22;100.00;100755.00;2614566;36;20035;-51
2022/10/21 01:04:04;;;;;;;26.50;15.00;;;;;;;15.24;100.00;100739.44;2615847;36;20424;-53
2022/10/21 01:06:33;;;;;;;23.35;13.52;;;;;;;15.32;100.00;100755.69;2616100;36;20125;-52
2022/10/21 01:09:06;;;;;;;20.63;12.93;;;;;;;15.45;100.00;100743.50;2616360;36;20034;-57
2022/10/21 01:11:40;;;;;;;23.55;13.13;;;;;;;15.62;100.00;100723.47;2615340;36;20034;-54
2022/10/21 01:14:30;;;;;;;24.08;13.15;;;;;;;15.73;100.00;100705.97;2615082;36;20041;-52
2022/10/21 01:17:14;;;;;;;21.85;11.50;;;;;;;15.96;100.00;100706.09;2615998;39;20534;-53
2022/10/21 01:20:13;;;;;;;19.23;10.20;;;;;;;16.01;100.00;100700.13;2616151;36;20065;-55
2022/10/21 01:22:57;;;;;;;18.20;9.57;;;;;;;16.07;100.00;100699.44;2615317;36;20102;-52
2022/10/21 01:25:47;;;;;;;17.27;10.02;;;;;;;16.10;100.00;100693.63;2613489;36;20912;-57
2022/10/21 01:28:26;;;;;;;19.42;10.00;;;;;;;15.97;100.00;100691.47;2615137;36;20061;-56
2022/10/21 01:31:02;;;;;;;22.30;11.40;;;;;;;15.95;100.00;100690.81;2615055;36;20597;-54
2022/10/21 01:33:41;;;;;;;19.50;10.60;;;;;;;15.93;100.00;100687.44;2614156;31;20039;-53
2022/10/21 01:36:26;;;;;;;18.65;11.35;;;;;;;15.96;100.00;100692.53;2615246;36;20022;-56
2022/10/21 01:39:06;;;;;;;20.65;10.60;;;;;;;16.08;100.00;100680.25;2615081;36;20038;-56
2022/10/21 01:41:41;;;;;;;24.98;11.43;;;;;;;15.98;100.00;100687.75;2613028;36;20034;-57
2022/10/21 01:44:17;;;;;;;20.38;11.35;;;;;;;15.92;100.00;100686.59;2614664;36;20479;-58
2022/10/21 01:46:52;;;;;;;25.15;13.38;;;;;;;15.86;100.00;100681.03;2616188;36;20438;-55
2022/10/21 01:49:28;;;;;;;19.48;11.23;;;;;;;15.80;100.00;100687.13;2615068;36;20548;-57
2022/10/21 01:51:57;;;;;;;21.02;12.30;;;;;;;15.88;100.00;100689.81;2614425;36;20029;-58
2022/10/21 01:54:30;;;;;;;19.95;11.95;;;;;;;15.76;100.00;100679.31;2613691;31;20107;-59
2022/10/21 01:57:01;;;;;;;22.65;12.43;;;;;;;15.80;100.00;100681.69;2613905;36;20035;-59
2022/10/21 01:59:32;;;;;;;22.13;12.63;;;;;;;15.64;100.00;100677.16;2615441;36;20047;-58
2022/10/21 02:02:08;;;;;;;22.88;12.63;;;;;;;15.51;100.00;100669.56;2614453;36;20035;-59
2022/10/21 02:04:38;;;;;;;22.33;13.07;;;;;;;15.59;100.00;100664.97;2614040;36;21994;-58
2022/10/21 02:07:07;;;;;;;21.38;12.07;;;;;;;15.57;100.00;100666.16;2615062;36;20022;-58
2022/10/21 02:09:35;;;;;;;29.07;14.43;;;;;;;15.59;100.00;100670.38;2613548;31;20057;-57
2022/10/21 02:12:06;;;;;;;22.77;12.77;;;;;;;15.63;100.00;100670.03;2615428;36;20058;-54
2022/10/21 02:14:38;;;;;;;24.30;13.65;;;;;;;15.67;100.00;100671.38;2615345;36;20446;-57
2022/10/21 02:17:12;;;;;;;24.85;14.13;;;;;;;15.70;100.00;100661.03;2613860;36;20034;-56
2022/10/21 02:19:41;;;;;;;25.15;14.40;;;;;;;15.60;100.00;100654.94;2615306;36;20030;-53
2022/10/21 02:22:13;;;;;;;27.40;14.23;;;;;;;15.73;100.00;100644.38;2614717;36;20062;-55
2022/10/21 02:24:47;;;;;;;28.70;14.00;;;;;;;15.60;100.00;100644.09;2615822;36;20035;-55
2022/10/21 02:27:16;;;;;;;28.10;14.20;;;;;;;15.55;100.00;100655.47;2614470;36;20561;-55
2022/10/21 02:29:48;;;;;;;26.52;15.02;;;;;;;15.44;100.00;100646.84;2613870;36;20030;-52
2022/10/21 02:32:28;;;;;;;25.08;14.38;;;;;;;15.59;100.00;100636.97;2614597;36;20054;-52
2022/10/21 02:35:10;;;;;;;25.85;13.25;;;;;;;15.67;100.00;100631.53;2615743;36;20050;-57
2022/10/21 02:37:47;;;;;;;25.85;14.25;;;;;;;15.63;100.00;100635.59;2615269;36;20034;-56
2022/10/21 02:40:38;;;;;;;23.70;13.48;;;;;;;15.54;100.00;100631.22;2614467;36;20041;-55
2022/10/21 02:43:22;;;;;;;27.40;14.52;;;;;;;15.52;100.00;100636.84;2614931;36;20546;-54
2022/10/21 02:45:51;;;;;;;31.60;15.15;;;;;;;15.62;100.00;100628.50;2614984;36;20035;-58
2022/10/21 02:48:22;;;;;;;30.00;15.82;;;;;;;15.54;100.00;100626.66;2615824;31;20045;-53
2022/10/21 02:50:50;;;;;;;31.88;15.30;;;;;;;15.63;100.00;100624.75;2615898;36;20038;-56
2022/10/21 02:53:19;;;;;;;27.00;14.13;;;;;;;15.52;100.00;100617.84;2614430;36;20554;-57
2022/10/21 02:55:47;;;;;;;30.83;14.32;;;;;;;15.47;100.00;100622.09;2608617;36;20022;-57
2022/10/21 02:58:15;;;;;;;30.90;16.23;;;;;;;15.41;100.00;100616.38;2616204;36;20564;-57
2022/10/21 03:00:44;;;;;;;28.17;14.67;;;;;;;15.39;100.00;100620.25;2615250;36;20058;-58
2022/10/21 03:03:12;;;;;;;28.00;15.27;;;;;;;15.47;100.00;100616.66;2615837;36;20532;-57
2022/10/21 03:05:43;;;;;;;31.65;14.27;;;;;;;15.32;100.00;100613.84;2616449;36;20045;-56
2022/10/21 03:08:11;;;;;;;29.92;14.98;;;;;;;15.50;100.00;100616.31;2614527;36;20578;-56
2022/10/21 03:10:39;;;;;;;30.57;16.30;;;;;;;15.47;100.00;100616.66;2615487;36;20029;-55
2022/10/21 03:13:08;;;;;;;32.15;16.25;;;;;;;15.24;100.00;100625.56;2616154;36;20042;-58
2022/10/21 03:15:36;;;;;;;28.53;15.67;;;;;;;15.25;100.00;100619.09;2615222;36;20039;-54
2022/10/21 03:18:04;;;;;;;30.60;15.87;;;;;;;15.35;100.00;100614.31;2615504;36;20388;-57
2022/10/21 03:20:33;;;;;;;30.43;15.80;;;;;;;15.21;100.00;100613.19;2616243;36;20038;-58
2022/10/21 03:23:03;;;;;;;33.05;14.52;;;;;;;15.14;100.00;100608.63;2614955;31;20311;-57
2022/10/21 03:25:32;;;;;;;29.90;15.57;;;;;;;15.23;100.00;100613.84;2614938;36;20030;-56
2022/10/21 03:28:00;;;;;;;28.35;15.55;;;;;;;15.14;100.00;100617.59;2615037;36;20034;-56
2022/10/21 03:30:28;;;;;;;26.53;14.40;;;;;;;15.20;100.00;100616.06;2615577;36;20069;-53
2022/10/21 03:32:57;;;;;;;27.83;15.13;;;;;;;15.13;100.00;100615.06;2614001;36;20304;-56
2022/10/21 03:35:25;;;;;;;30.48;15.50;;;;;;;15.13;100.00;100612.34;2616214;36;20029;-57
2022/10/21 03:37:53;;;;;;;31.67;14.63;;;;;;;15.12;100.00;100613.34;2615591;36;20115;-57
2022/10/21 03:40:28;;;;;;;33.95;16.13;;;;;;;15.02;100.00;100613.56;2615138;31;20045;-56
2022/10/21 03:42:57;;;;;;;32.42;15.00;;;;;;;14.95;100.00;100612.56;2614777;36;20562;-56
2022/10/21 03:45:25;;;;;;;27.77;15.23;;;;;;;14.90;100.00;100618.50;2615492;36;20037;-55
2022/10/21 03:47:53;;;;;;;31.40;15.75;;;;;;;14.75;100.00;100617.47;2615107;36;20042;-56
2022/10/21 03:50:22;;;;;;;33.35;16.73;;;;;;;14.91;100.00;100606.59;2615848;36;20049;-55
2022/10/21 03:52:50;;;;;;;30.50;15.00;;;;;;;15.06;100.00;100612.19;2615066;31;20038;-57
2022/10/21 03:55:22;;;;;;;32.07;16.90;;;;;;;14.96;100.00;100608.81;2615603;36;20061;-54
2022/10/21 03:57:54;;;;;;;29.25;15.45;;;;;;;14.93;100.00;100607.31;2614563;36;20034;-56
2022/10/21 04:00:22;;;;;;;27.02;14.93;;;;;;;14.86;100.00;100603.56;2614750;36;20657;-56
2022/10/21 04:02:51;;;;;;;29.85;15.18;;;;;;;14.66;100.00;100603.06;2614662;36;20536;-53
2022/10/21 04:05:19;;;;;;;31.33;14.38;;;;;;;14.79;100.00;100603.41;2615323;36;20447;-54
2022/10/21 04:07:48;;;;;;;27.27;14.80;;;;;;;14.78;100.00;100596.31;2615154;31;20559;-57
2022/10/21 04:10:16;;;;;;;26.83;14.15;;;;;;;14.84;100.00;100592.03;2614463;31;20416;-54
2022/10/21 04:12:44;;;;;;;32.97;13.63;;;;;;;14.78;100.00;100584.59;2614477;36;20031;-58
2022/10/21 04:15:15;;;;;;;27.50;13.85;;;;;;;14.86;100.00;100581.91;2614863;36;20567;-57
2022/10/21 04:17:47;;;;;;;29.38;15.35;;;;;;;14.86;100.00;100573.78;2614609;36;20069;-56
2022/10/21 04:20:15;;;;;;;27.55;13.98;;;;;;;14.87;100.00;100572.75;2613918;31;20031;-56
2022/10/21 04:22:43;;;;;;;24.92;13.93;;;;;;;14.89;100.00;100565.28;2614142;31;20053;-54
2022/10/21 04:25:12;;;;;;;28.03;14.30;;;;;;;14.87;100.00;100572.75;2614682;36;20035;-57
2022/10/21 04:27:40;;;;;;;27.48;14.25;;;;;;;14.71;100.00;100577.16;2614891;36;20030;-55
2022/10/21 04:30:10;;;;;;;24.37;13.10;;;;;;;14.66;100.00;100568.72;2614877;36;20034;-57
2022/10/21 04:32:41;;;;;;;24.67;13.07;;;;;;;14.73;100.00;100576.16;2614114;36;20065;-55
2022/10/21 04:35:10;;;;;;;30.63;14.13;;;;;;;14.61;100.00;100579.19;2614609;36;20037;-58
2022/10/21 04:37:39;;;;;;;27.45;13.30;;;;;;;14.65;100.00;100588.69;2614717;36;20038;-57
2022/10/21 04:40:09;;;;;;;28.70;13.98;;;;;;;14.64;100.00;100583.44;2614344;31;20033;-56
2022/10/21 04:42:38;;;;;;;28.08;13.30;;;;;;;14.61;100.00;100594.59;2612692;36;20039;-56
2022/10/21 04:45:06;;;;;;;32.33;14.10;;;;;;;14.49;100.00;100591.38;2613177;36;20551;-56
2022/10/21 04:47:35;;;;;;;28.33;13.50;;;;;;;14.40;100.00;100595.06;2614652;36;20035;-56
2022/10/21 04:50:07;;;;;;;25.73;13.00;;;;;;;14.52;100.00;100593.72;2614843;36;20038;-57
2022/10/21 04:52:35;;;;;;;27.30;13.25;;;;;;;14.37;100.00;100605.22;2614879;36;20042;-57
2022/10/21 04:55:03;;;;;;;25.23;11.97;;;;;;;14.43;100.00;100586.59;2612799;36;20042;-57
2022/10/21 04:57:31;;;;;;;26.90;12.83;;;;;;;14.44;100.00;100585.59;2610339;36;20069;-58
2022/10/21 05:00:00;;;;;;;30.42;13.38;;;;;;;14.49;100.00;100594.06;2606420;36;20038;-56
2022/10/21 05:02:28;;;;;;;27.13;13.90;;;;;;;14.37;100.00;100588.97;2614727;36;20042;-56
2022/10/21 05:04:56;;;;;;;23.95;13.27;;;;;;;14.41;100.00;100594.06;2611524;31;20027;-55
2022/10/21 05:07:27;;;;;;;27.20;12.93;;;;;;;14.34;100.00;100599.31;2611949;36;20034;-58
2022/10/21 05:09:55;;;;;;;24.05;12.32;;;;;;;14.44;100.00;100589.16;2613795;31;20567;-57
2022/10/21 05:12:24;;;;;;;27.92;13.82;;;;;;;14.44;100.00;100591.88;2615487;36;20424;-55
2022/10/21 05:14:52;;;;;;;23.90;12.30;;;;;;;14.45;100.00;100592.72;2616429;36;20038;-53
2022/10/21 05:17:20;;;;;;;23.33;12.40;;;;;;;14.46;100.00;100592.53;2614619;36;20061;-54
2022/10/21 05:19:49;;;;;;;23.88;12.25;;;;;;;14.50;100.00;100593.03;2615640;36;20031;-55
2022/10/21 05:22:17;;;;;;;27.65;12.65;;;;;;;14.36;100.00;100597.28;2614276;36;20058;-56
2022/10/21 05:24:48;;;;;;;23.23;11.55;;;;;;;14.45;100.00;100600.84;2614920;36;20038;-52
2022/10/21 05:27:16;;;;;;;22.45;11.88;;;;;;;14.55;100.00;100601.53;2614820;36;20035;-54
2022/10/21 05:29:44;;;;;;;22.88;11.90;;;;;;;14.42;100.00;100599.31;2615672;36;20042;-53
2022/10/21 05:32:13;;;;;;;25.60;11.10;;;;;;;14.35;100.00;100593.72;2614880;36;20039;-55
2022/10/21 05:34:41;;;;;;;26.47;13.37;;;;;;;14.38;100.00;100597.94;2615630;31;20686;-57
2022/10/21 05:37:09;;;;;;;25.38;13.07;;;;;;;14.42;100.00;100588.47;2615027;36;20038;-56
2022/10/21 05:39:37;;;;;;;21.93;11.37;;;;;;;14.50;100.00;100593.03;2616131;36;20030;-56
2022/10/21 05:42:08;;;;;;;26.90;12.55;;;;;;;14.48;100.00;100592.38;2614653;36;20037;-56
2022/10/21 05:44:37;;;;;;;22.33;10.60;;;;;;;14.46;100.00;100592.53;2615275;36;20031;-56
2022/10/21 05:47:05;;;;;;;27.90;11.27;;;;;;;14.43;100.00;100586.59;2615776;36;20154;-56
2022/10/21 05:49:33;;;;;;;27.98;12.57;;;;;;;14.41;100.00;100585.94;2616895;31;20440;-56
2022/10/21 05:52:01;;;;;;;28.27;12.07;;;;;;;14.31;100.00;100583.38;2616355;36;20026;-55
2022/10/21 05:54:30;;;;;;;26.95;12.18;;;;;;;14.42;100.00;100590.34;2615424;36;20459;-56
2022/10/21 05:56:59;;;;;;;23.75;12.00;;;;;;;14.43;100.00;100595.59;2615992;36;20427;-56
2022/10/21 05:59:30;;;;;;;25.55;11.05;;;;;;;14.41;100.00;100594.06;2615154;36;20046;-56
2022/10/21 06:01:58;;;;;;;22.23;10.82;;;;;;;14.25;100.00;100593.03;2616112;36;20069;-53
2022/10/21 06:04:27;;;;;;;23.60;12.20;;;;;;;14.31;100.00;100595.06;2616307;31;20030;-58
2022/10/21 06:06:56;;;;;;;23.35;11.35;;;;;;;14.28;100.00;100592.69;2615747;36;20820;-56
2022/10/21 06:09:25;;;;;;;22.40;11.88;;;;;;;14.19;100.00;100593.69;2616244;36;20038;-54
2022/10/21 06:11:53;;;;;;;19.30;10.90;;;;;;;14.30;100.00;100587.13;2615019;36;20423;-55
2022/10/21 06:14:21;;;;;;;20.92;11.07;;;;;;;14.35;100.00;100588.31;2616663;36;20454;-57
2022/10/21 06:16:52;;;;;;;24.63;11.85;;;;;;;14.29;100.00;100586.25;2615651;36;20442;-56
2022/10/21 06:19:20;;;;;;;26.73;11.25;;;;;;;14.36;100.00;100583.72;2614680;36;20423;-55
2022/10/21 06:21:49;;;;;;;23.38;10.00;;;;;;;14.26;100.00;100586.59;2615337;36;20644;-56
2022/10/21 06:24:18;;;;;;;22.80;10.73;;;;;;;14.35;100.00;100585.59;2616629;36;20412;-56
2022/10/21 06:26:46;;;;;;;22.05;10.88;;;;;;;14.22;100.00;100590.63;2615132;36;20038;-56
2022/10/21 06:29:15;;;;;;;24.33;11.53;;;;;;;14.23;100.00;100584.22;2616584;36;20585;-57
2022/10/21 06:31:43;;;;;;;20.40;11.45;;;;;;;14.16;100.00;100586.75;2615451;36;20557;-58
2022/10/21 06:34:14;;;;;;;21.85;10.63;;;;;;;14.13;100.00;100591.63;2615340;31;20038;-56
2022/10/21 06:36:42;;;;;;;20.90;10.15;;;;;;;14.20;100.00;100587.25;2616530;36;20042;-55
2022/10/21 06:39:11;;;;;;;21.30;10.70;;;;;;;14.27;100.00;100577.47;2615436;36;20030;-56
2022/10/21 06:41:39;;;;;;;21.00;11.48;;;;;;;14.39;100.00;100580.69;2614182;36;20038;-56
2022/10/21 06:44:08;;;;;;;21.03;10.33;;;;;;;14.44;100.00;100575.63;2615426;54;20023;-55
2022/10/21 06:46:36;;;;;;;21.17;11.00;;;;;;;14.42;100.00;100579.50;2616189;36;20029;-57
2022/10/21 06:49:04;;;;;;;22.87;10.57;;;;;;;14.31;100.00;100583.38;2615745;36;20053;-57
2022/10/21 06:51:35;;;;;;;20.08;9.63;;;;;;;14.44;100.00;100580.19;2616091;36;20069;-57
2022/10/21 06:54:03;;;;;;;18.63;9.07;;;;;;;14.46;100.00;100591.72;2616106;36;20030;-54
2022/10/21 06:56:32;;;;;;;22.33;10.23;;;;;;;14.55;100.00;100587.97;2614561;36;20473;-54
2022/10/21 06:59:00;;;;;;;23.33;10.15;;;;;;;14.53;100.00;100581.88;2616808;36;20435;-57
2022/10/21 07:01:31;;;;;;;21.83;10.02;;;;;;;14.54;100.00;100587.09;2615078;36;20657;-56
2022/10/21 07:04:00;;;;;;;15.43;9.02;;;;;;;14.59;100.00;100585.75;2615214;36;20130;-56
2022/10/21 07:06:28;;;;;;;21.15;9.38;;;;;;;14.56;100.00;100584.25;2615472;36;20035;-56
2022/10/21 07:09:00;;;;;;;18.83;9.65;;;;;;;14.65;100.00;100594.09;2616953;36;20041;-56
2022/10/21 07:11:29;;;;;;;18.85;9.40;;;;;;;14.52;100.00;100599.16;2614879;36;20038;-57
2022/10/21 07:13:57;;;;;;;18.02;8.90;;;;;;;14.61;100.00;100609.00;2616497;36;20022;-57
2022/10/21 07:16:28;;;;;;;19.08;8.98;;;;;;;14.69;100.00;100603.59;2615057;36;20050;-54
2022/10/21 07:18:57;;;;;;;16.75;8.30;;;;;;;14.65;100.00;100602.22;2615531;36;20034;-57
2022/10/21 07:21:27;;;;;;;18.00;9.88;;;;;;;14.74;100.00;100604.91;2615662;36;20073;-57
2022/10/21 07:23:59;;;;;;;16.45;8.65;;;;;;;14.60;100.00;100604.56;2615537;36;20038;-56
2022/10/21 07:26:29;;;;;;;15.38;8.93;;;;;;;14.79;100.00;100602.56;2614242;36;20038;-56
2022/10/21 07:28:59;;;;;;;16.90;9.25;;;;;;;14.82;100.00;100599.50;2616777;36;20316;-57
2022/10/21 07:31:28;;;;;;;16.30;9.63;;;;;;;14.78;100.00;100606.28;2616215;31;20038;-57
2022/10/21 07:33:56;;;;;;;;;;;;;;;14.88;100.00;100609.66;2617150;31;20031;-55
2022/10/21 07:36:27;;;;;;;16.90;8.80;;;;;;;14.96;100.00;100606.97;2616383;31;19954;-56
2022/10/21 07:39:01;;;;;;;14.85;8.50;;;;;;;15.01;100.00;100612.69;2616747;36;20106;-56
2022/10/21 07:41:32;;;;;;;15.05;8.25;;;;;;;15.03;100.00;100610.69;2615604;36;20037;-56
2022/10/21 07:44:01;;;;;;;19.30;8.23;;;;;;;15.03;100.00;100616.09;2616279;36;20023;-55
2022/10/21 07:46:29;;;;;;;12.88;8.25;;;;;;;15.03;100.00;100615.22;2615500;31;20559;-56
2022/10/21 07:48:58;;;;;;;16.50;7.80;;;;;;;15.13;100.00;100621.31;2616562;36;20061;-56
2022/10/21 07:51:28;;;;;;;14.63;8.15;;;;;;;15.15;100.00;100623.84;2615808;36;20041;-54
2022/10/21 07:54:01;;;;;;;16.23;8.00;;;;;;;15.16;100.00;100628.25;2615635;36;20022;-58
2022/10/21 07:56:32;;;;;;;11.27;7.18;;;;;;;15.34;100.00;100612.66;2614537;36;20462;-56
2022/10/21 07:59:03;;;;;;;15.88;7.82;;;;;;;15.47;100.00;100622.09;2616160;36;20029;-55
2022/10/21 08:01:32;;;;;;;13.35;7.10;;;;;;;15.55;100.00;100619.38;2613951;36;21686;-55
2022/10/21 08:04:01;;;;;;;11.90;6.85;;;;;;;15.70;100.00;100628.47;2615960;36;20443;-56
2022/10/21 08:06:30;;;;;;;14.63;6.85;;;;;;;15.61;100.00;100634.94;2615062;36;20042;-52
2022/10/21 08:09:03;;;;;;;;;;;;;;;15.51;100.00;100637.00;2616504;31;20370;-57
2022/10/21 08:11:34;;;;;;;13.65;7.22;;;;;;;15.51;100.00;100643.28;2614743;36;20382;-56
2022/10/21 08:14:03;;;;;;;15.38;7.97;;;;;;;15.70;100.00;100644.75;2615074;31;20022;-52
2022/10/21 08:16:31;;;;;;;12.98;7.30;;;;;;;15.56;100.00;100642.75;2615144;36;20603;-55
2022/10/21 08:19:01;;;;;;;11.38;6.97;;;;;;;15.53;100.00;100643.97;2615955;36;20042;-59
2022/10/21 08:21:30;;;;;;;13.10;6.60;;;;;;;15.67;100.00;100650.50;2615607;36;20023;-58
2022/10/21 08:24:02;;;;;;;16.27;6.75;;;;;;;15.72;100.00;100650.84;2615162;36;20623;-59
2022/10/21 08:26:31;;;;;;;11.63;7.35;;;;;;;15.59;100.00;100637.84;2616018;36;20546;-58
2022/10/21 08:28:59;;;;;;;12.27;7.60;;;;;;;15.79;100.00;100637.44;2615987;36;20030;-58
2022/10/21 08:31:28;;;;;;;12.50;5.83;;;;;;;15.81;100.00;100634.56;2614233;36;20031;-57
2022/10/21 08:33:57;;;;;;;11.40;6.38;;;;;;;15.67;100.00;100634.25;2615160;36;20295;-59
2022/10/21 08:36:27;;;;;;;11.68;6.43;;;;;;;15.75;100.00;100636.94;2615391;36;20543;-59
2022/10/21 08:38:57;;;;;;;13.30;7.03;;;;;;;15.96;100.00;100649.09;2616452;36;20026;-60
2022/10/21 08:41:47;;;;;;;13.25;7.30;;;;;;;16.05;100.00;100647.19;2614436;36;20142;-57
2022/10/21 08:44:30;;;;;;;16.40;7.57;;;;;;;15.84;100.00;100645.06;2613779;36;20027;-58
2022/10/21 08:47:07;;;;;;;12.90;7.57;;;;;;;15.99;100.00;100648.72;2614480;36;20069;-58
2022/10/21 08:49:45;;;;;;;11.23;7.10;;;;;;;15.80;100.00;100643.72;2614834;36;20061;-58
2022/10/21 08:52:17;;;;;;;12.93;6.65;;;;;;;15.90;100.00;100639.78;2615421;36;20030;-58
2022/10/21 08:54:51;;;;;;;13.05;6.70;;;;;;;16.01;100.00;100634.97;2615996;36;20030;-59
2022/10/21 08:57:22;;;;;;;15.38;7.22;;;;;;;16.01;100.00;100624.13;2615212;31;20023;-57
2022/10/21 08:59:51;;;;;;;16.60;7.70;;;;;;;15.96;100.00;100621.94;2616206;36;20038;-58
2022/10/21 09:02:37;;;;;;;11.32;6.32;;;;;;;16.27;100.00;100630.09;2615498;36;20045;-58
2022/10/21 09:05:20;;;;;;;12.65;7.30;;;;;;;16.03;100.00;100617.50;2615781;36;20568;-60
2022/10/21 09:07:58;;;;;;;13.43;6.90;;;;;;;16.15;100.00;100611.66;2616049;31;20037;-58
2022/10/21 09:10:31;;;;;;;16.13;7.03;;;;;;;16.23;100.00;100614.31;2615827;31;20042;-58
2022/10/21 09:13:07;;;;;;;12.88;7.35;;;;;;;16.18;100.00;100611.28;2615839;36;20023;-60
2022/10/21 09:15:47;;;;;;;13.05;7.22;;;;;;;16.27;100.00;100611.06;2615337;36;20027;-59
2022/10/21 09:18:34;;;;;;;16.23;7.40;;;;;;;16.24;100.00;100607.88;2615667;36;20041;-59
2022/10/21 09:21:11;;;;;;;10.88;6.68;;;;;;;16.19;100.00;100615.69;2615761;36;20544;-59
2022/10/21 09:23:47;;;;;;;13.13;7.35;;;;;;;16.33;100.00;100616.78;2616174;36;20041;-60
2022/10/21 09:26:29;;;;;;;14.35;7.78;;;;;;;16.48;100.00;100625.88;2615892;31;20438;-59
2022/10/21 09:29:02;;;;;;;14.05;6.68;;;;;;;16.52;100.00;100631.78;2614810;36;20042;-58
2022/10/21 09:31:34;;;;;;;15.10;6.78;;;;;;;16.40;100.00;100640.38;2615823;36;20539;-59
2022/10/21 09:34:07;;;;;;;11.00;6.28;;;;;;;16.67;100.00;100646.28;2617006;36;20023;-59
2022/10/21 09:36:46;;;;;;;11.75;6.90;;;;;;;16.38;100.00;100642.41;2617541;36;20023;-58
2022/10/21 09:39:20;;;;;;;14.40;7.18;;;;;;;16.37;100.00;100651.59;2616804;36;20034;-59
2022/10/21 09:41:53;;;;;;;16.73;6.95;;;;;;;16.44;100.00;100640.84;2616785;36;20027;-59
2022/10/21 09:44:25;;;;;;;15.20;7.00;;;;;;;16.49;100.00;100629.41;2616759;36;20038;-59
2022/10/21 09:46:55;;;;;;;16.85;6.88;;;;;;;16.82;100.00;100627.31;2616778;36;20030;-60
2022/10/21 09:49:30;;;;;;;13.48;6.93;;;;;;;16.75;100.00;100627.19;2617130;36;20434;-60
2022/10/21 09:52:01;;;;;;;13.02;7.22;;;;;;;16.97;100.00;100636.41;2616537;36;20022;-60
2022/10/21 09:54:33;;;;;;;11.88;6.70;;;;;;;17.14;100.00;100634.34;2617292;36;20435;-60
2022/10/21 09:57:06;;;;;;;11.02;6.82;;;;;;;17.16;100.00;100651.31;2615686;36;20031;-58
2022/10/21 09:59:40;;;;;;;15.27;7.07;;;;;;;17.02;100.00;100640.41;2617416;36;20403;-59
2022/10/21 10:02:17;;;;;;;16.20;7.60;;;;;;;16.91;100.00;100647.16;2616110;31;20045;-60
2022/10/21 10:04:46;;;;;;;14.85;7.28;;;;;;;16.96;100.00;100652.84;2616823;36;20614;-60
2022/10/21 10:07:27;;;;;;;15.63;7.10;;;;;;;16.80;100.00;100657.38;2616507;36;20030;-60
2022/10/21 10:09:56;;;;;;;10.93;7.45;;;;;;;16.80;100.00;100643.78;2616915;36;20037;-60
2022/10/21 10:12:26;;;;;;;13.68;7.43;;;;;;;16.52;100.00;100659.81;2615362;36;20042;-59
2022/10/21 10:14:57;;;;;;;17.10;8.15;;;;;;;16.60;100.00;100667.06;2616049;36;20427;-61
2022/10/21 10:17:34;;;;;;;17.85;8.65;;;;;;;16.81;100.00;100659.09;2613889;36;20523;-58
2022/10/21 10:20:14;;;;;;;12.55;7.07;;;;;;;16.81;100.00;100650.94;2615603;36;20046;-61
2022/10/21 10:22:44;;;;;;;16.13;7.18;;;;;;;16.63;100.00;100656.66;2613621;36;20042;-60
2022/10/21 10:25:23;;;;;;;14.82;6.88;;;;;;;16.81;100.00;100664.53;2615889;36;20045;-62
2022/10/21 10:27:54;;;;;;;14.00;8.07;;;;;;;16.87;100.00;100657.56;2614563;31;20415;-62
2022/10/21 10:30:28;;;;;;;16.13;7.07;;;;;;;16.98;100.00;100648.09;2613752;36;20042;-60
2022/10/21 10:32:58;;;;;;;13.63;8.27;;;;;;;17.04;100.00;100651.97;2616375;36;20023;-62
2022/10/21 10:35:35;;;;;;;15.93;8.13;;;;;;;16.95;100.00;100643.03;2616425;36;21313;-62
2022/10/21 10:38:04;;;;;;;14.32;7.10;;;;;;;16.94;100.00;100644.88;2615051;36;20455;-62
2022/10/21 10:40:38;;;;;;;;;;;;;;;16.87;100.00;100646.69;2616112;36;20102;-60
2022/10/21 10:43:14;;;;;;;18.45;8.10;;;;;;;17.01;100.00;100645.00;2616543;36;19957;-61
2022/10/21 10:45:55;;;;;;;12.00;7.43;;;;;;;17.05;100.00;100645.47;2616570;36;20041;-62
2022/10/21 10:48:29;;;;;;;13.43;7.60;;;;;;;17.03;100.00;100650.25;2615808;36;20431;-60
2022/10/21 10:50:57;;;;;;;10.07;7.03;;;;;;;17.10;100.00;100654.78;2616209;36;20567;-60
2022/10/21 10:53:31;;;;;;;11.63;7.15;;;;;;;17.16;100.00;100648.59;2615788;36;20057;-60
2022/10/21 10:56:14;;;;;;;11.40;7.35;;;;;;;17.07;100.00;100644.28;2615991;36;21343;-59
2022/10/21 10:58:49;;;;;;;17.92;7.65;;;;;;;17.17;100.00;100647.56;2616493;36;20106;-60
2022/10/21 11:01:41;;;;;;;16.80;7.88;;;;;;;17.13;100.00;100646.25;2614657;36;20038;-59
2022/10/21 11:04:15;;;;;;;14.93;7.53;;;;;;;17.09;100.00;100652.25;2616591;36;20048;-59
2022/10/21 11:06:48;;;;;;;12.48;7.43;;;;;;;16.97;100.00;100652.72;2615684;36;20083;-59
2022/10/21 11:09:19;;;;;;;18.90;8.05;;;;;;;17.13;100.00;100646.25;2615748;36;20030;-59
2022/10/21 11:11:50;;;;;;;13.73;7.80;;;;;;;17.10;100.00;100643.06;2615821;36;20039;-59
2022/10/21 11:14:20;;;;;;;11.65;6.95;;;;;;;17.07;100.00;100644.28;2616370;36;20041;-61
2022/10/21 11:17:00;;;;;;;16.13;7.57;;;;;;;17.23;100.00;100642.44;2615734;36;20034;-59
2022/10/21 11:19:34;;;;;;;14.57;7.60;;;;;;;17.30;100.00;100641.50;2617195;31;20439;-61
2022/10/21 11:22:13;;;;;;;15.30;6.75;;;;;;;17.39;100.00;100650.44;2616758;36;20039;-59
2022/10/21 11:25:03;;;;;;;12.02;6.85;;;;;;;17.40;100.00;100652.13;2616778;36;20029;-60